createdAt,value
2017-07-02T00:01:41.324Z,91.80
2017-07-02T00:04:09.538Z,91.40
2017-07-02T00:06:37.785Z,91.50
2017-07-02T00:09:05.983Z,91.50
2017-07-02T00:11:34.219Z,91.30
2017-07-02T00:14:02.417Z,90.70
2017-07-02T00:16:30.593Z,90.50
2017-07-02T00:18:58.816Z,90.40
2017-07-02T00:21:27.018Z,90.60
2017-07-02T00:23:55.217Z,90.30
2017-07-02T00:26:23.437Z,90.60
2017-07-02T00:28:51.657Z,90.70
2017-07-02T00:31:19.871Z,90.20
2017-07-02T00:33:48.823Z,90.30
2017-07-02T00:36:17.026Z,90.20
2017-07-02T00:38:45.972Z,90.30
2017-07-02T00:41:14.179Z,89.60
2017-07-02T00:43:42.368Z,90.20
2017-07-02T00:46:11.350Z,90.40
2017-07-02T00:48:40.333Z,90.10
2017-07-02T00:51:08.568Z,90.40
2017-07-02T00:53:36.764Z,90.80
2017-07-02T00:56:04.983Z,90.30
2017-07-02T00:58:33.947Z,90.70
2017-07-02T01:01:02.119Z,90.70
2017-07-02T01:03:30.354Z,90.60
2017-07-02T01:05:58.554Z,90.40
2017-07-02T01:08:26.825Z,90.40
2017-07-02T01:10:55.056Z,90.80
2017-07-02T01:13:23.307Z,90.80
2017-07-02T01:15:51.489Z,90.50
2017-07-02T01:18:19.685Z,89.70
2017-07-02T01:20:47.908Z,90.20
2017-07-02T01:23:16.095Z,90.30
2017-07-02T01:25:44.339Z,90.10
2017-07-02T01:28:12.538Z,90.40
2017-07-02T01:30:41.552Z,90.30
2017-07-02T01:33:10.525Z,90.40
2017-07-02T01:35:38.745Z,90.40
2017-07-02T01:38:06.968Z,90.90
2017-07-02T01:40:35.197Z,90.60
2017-07-02T01:43:03.373Z,90.50
2017-07-02T01:45:31.621Z,90.30
2017-07-02T01:48:00.613Z,90.60
2017-07-02T01:50:29.583Z,90.20
2017-07-02T01:52:58.519Z,90.50
2017-07-02T01:55:26.716Z,90.50
2017-07-02T01:57:54.935Z,90.60
2017-07-02T02:00:23.091Z,90.80
2017-07-02T02:03:17.015Z,91.00
2017-07-02T02:05:45.373Z,91.00
2017-07-02T02:08:13.564Z,91.20
2017-07-02T02:10:41.776Z,91.20
2017-07-02T02:13:10.018Z,91.10
2017-07-02T02:15:38.193Z,91.10
2017-07-02T02:18:06.408Z,91.20
2017-07-02T02:20:34.612Z,91.10
2017-07-02T02:23:02.850Z,90.60
2017-07-02T02:25:31.020Z,90.80
2017-07-02T02:27:59.252Z,90.90
2017-07-02T02:30:27.458Z,90.70
2017-07-02T02:32:55.632Z,90.10
2017-07-02T02:35:23.882Z,89.40
2017-07-02T02:37:52.080Z,88.90
2017-07-02T02:40:20.283Z,88.90
2017-07-02T02:42:49.240Z,88.80
2017-07-02T02:45:17.438Z,88.80
2017-07-02T02:47:46.426Z,87.80
2017-07-02T02:50:14.602Z,87.80
2017-07-02T02:52:42.844Z,88.10
2017-07-02T02:55:11.046Z,88.10
2017-07-02T02:57:39.297Z,87.70
2017-07-02T03:00:07.507Z,86.90
2017-07-02T03:02:36.479Z,85.60
2017-07-02T03:05:04.700Z,85.60
2017-07-02T03:07:32.892Z,86.30
2017-07-02T03:10:01.098Z,85.10
2017-07-02T03:12:29.308Z,84.70
2017-07-02T03:14:58.302Z,85.70
2017-07-02T03:17:27.295Z,85.90
2017-07-02T03:19:56.263Z,84.90
2017-07-02T03:22:25.254Z,85.00
2017-07-02T03:24:54.254Z,85.10
2017-07-02T03:27:23.185Z,85.20
2017-07-02T03:29:51.467Z,85.20
2017-07-02T03:32:19.803Z,85.30
2017-07-02T03:34:48.789Z,85.40
2017-07-02T03:37:17.775Z,86.20
2017-07-02T03:39:46.708Z,87.00
2017-07-02T03:42:14.958Z,86.20
2017-07-02T03:44:43.919Z,86.80
2017-07-02T03:47:12.121Z,86.80
2017-07-02T03:49:40.342Z,86.90
2017-07-02T03:52:08.531Z,86.90
2017-07-02T03:54:36.812Z,86.70
2017-07-02T03:57:05.044Z,86.20
2017-07-02T03:59:33.292Z,85.80
2017-07-02T04:02:02.260Z,85.60
2017-07-02T04:04:30.480Z,85.60
2017-07-02T04:06:58.803Z,84.60
2017-07-02T04:09:27.025Z,83.70
2017-07-02T04:11:55.310Z,83.80
2017-07-02T04:14:23.506Z,83.40
2017-07-02T04:16:51.756Z,83.00
2017-07-02T04:19:20.012Z,82.80
2017-07-02T04:21:48.242Z,83.70
2017-07-02T04:24:16.459Z,83.00
2017-07-02T04:26:45.445Z,82.30
2017-07-02T04:29:14.470Z,82.40
2017-07-02T04:31:42.714Z,82.40
2017-07-02T04:34:11.727Z,82.40
2017-07-02T04:36:40.005Z,82.40
2017-07-02T04:39:08.217Z,82.10
2017-07-02T04:41:37.190Z,80.80
2017-07-02T04:44:05.403Z,80.70
2017-07-02T04:46:34.358Z,80.30
2017-07-02T04:49:02.736Z,80.20
2017-07-02T04:51:31.151Z,79.50
2017-07-02T04:54:00.113Z,78.90
2017-07-02T04:56:28.425Z,78.90
2017-07-02T04:58:57.390Z,78.80
2017-07-02T05:01:25.600Z,78.80
2017-07-02T05:03:53.806Z,77.70
2017-07-02T05:06:22.033Z,77.10
2017-07-02T05:08:51.014Z,77.50
2017-07-02T05:11:19.321Z,77.50
2017-07-02T05:13:47.518Z,77.80
2017-07-02T05:16:15.737Z,76.80
2017-07-02T05:18:43.954Z,77.70
2017-07-02T05:21:12.149Z,77.80
2017-07-02T05:23:40.380Z,77.80
2017-07-02T05:26:09.375Z,78.10
2017-07-02T05:28:38.356Z,78.90
2017-07-02T05:31:07.391Z,78.90
2017-07-02T05:33:35.638Z,78.70
2017-07-02T05:36:03.838Z,78.90
2017-07-02T05:38:32.032Z,78.30
2017-07-02T05:41:00.260Z,77.70
2017-07-02T05:43:28.452Z,78.20
2017-07-02T05:45:56.763Z,78.60
2017-07-02T05:48:24.963Z,78.60
2017-07-02T05:50:53.215Z,77.60
2017-07-02T05:53:21.485Z,78.40
2017-07-02T05:55:49.684Z,79.30
2017-07-02T05:58:18.704Z,78.40
2017-07-02T06:00:46.896Z,78.40
2017-07-02T06:03:15.116Z,78.30
2017-07-02T06:05:44.074Z,77.20
2017-07-02T06:08:12.296Z,77.00
2017-07-02T06:10:41.280Z,76.10
2017-07-02T06:13:10.268Z,76.10
2017-07-02T06:15:38.456Z,76.10
2017-07-02T06:18:07.485Z,75.20
2017-07-02T06:20:35.684Z,75.30
2017-07-02T06:23:03.906Z,76.50
2017-07-02T06:25:32.982Z,76.00
2017-07-02T06:28:01.942Z,75.60
2017-07-02T06:30:30.164Z,75.50
2017-07-02T06:32:58.357Z,74.80
2017-07-02T06:35:26.591Z,75.10
2017-07-02T06:37:54.783Z,75.10
2017-07-02T06:40:23.750Z,75.20
2017-07-02T06:42:51.973Z,75.20
2017-07-02T06:45:20.171Z,76.80
2017-07-02T06:47:48.408Z,75.10
2017-07-02T06:50:16.663Z,76.10
2017-07-02T06:52:44.895Z,74.50
2017-07-02T06:55:13.119Z,75.60
2017-07-02T06:57:42.141Z,74.50
2017-07-02T07:00:10.344Z,74.50
2017-07-02T07:02:38.595Z,73.40
2017-07-02T07:05:06.803Z,73.40
2017-07-02T07:07:34.999Z,73.30
2017-07-02T07:10:04.015Z,72.20
2017-07-02T07:12:32.228Z,72.20
2017-07-02T07:15:00.500Z,71.00
2017-07-02T07:17:28.692Z,70.60
2017-07-02T07:19:56.892Z,69.90
2017-07-02T07:22:25.082Z,69.80
2017-07-02T07:24:53.326Z,69.20
2017-07-02T07:27:22.280Z,67.90
2017-07-02T07:29:50.550Z,67.90
2017-07-02T07:32:18.837Z,67.30
2017-07-02T07:34:47.029Z,62.60
2017-07-02T07:37:15.255Z,60.70
2017-07-02T07:39:43.468Z,63.70
2017-07-02T07:42:11.685Z,64.00
2017-07-02T07:44:39.938Z,63.90
2017-07-02T07:47:08.946Z,64.50
2017-07-02T07:49:37.908Z,64.10
2017-07-02T07:52:07.718Z,61.50
2017-07-02T07:54:35.951Z,62.10
2017-07-02T07:57:04.191Z,60.40
2017-07-02T07:59:33.184Z,54.90
2017-07-02T08:02:02.220Z,53.00
2017-07-02T08:04:30.446Z,52.80
2017-07-02T08:06:58.628Z,53.10
2017-07-02T08:09:26.856Z,50.80
2017-07-02T08:11:55.076Z,52.20
2017-07-02T08:14:23.319Z,52.60
2017-07-02T08:16:51.523Z,52.90
2017-07-02T08:19:20.534Z,52.10
2017-07-02T08:21:48.815Z,52.00
2017-07-02T08:24:16.984Z,55.50
2017-07-02T08:26:45.254Z,54.90
2017-07-02T08:29:13.496Z,55.20
2017-07-02T08:31:41.850Z,54.30
2017-07-02T08:34:10.026Z,55.50
2017-07-02T08:36:38.352Z,56.80
2017-07-02T08:39:06.537Z,57.00
2017-07-02T08:41:34.799Z,58.00
2017-07-02T08:44:03.025Z,57.50
2017-07-02T08:46:31.237Z,56.20
2017-07-02T08:48:59.630Z,57.20
2017-07-02T08:51:27.836Z,56.00
2017-07-02T08:53:56.074Z,56.50
2017-07-02T08:56:24.270Z,57.00
2017-07-02T08:58:52.508Z,55.60
2017-07-02T09:01:20.714Z,54.00
2017-07-02T09:03:48.954Z,53.90
2017-07-02T09:06:17.899Z,53.40
2017-07-02T09:08:46.175Z,53.40
2017-07-02T09:11:14.374Z,53.70
2017-07-02T09:13:42.577Z,54.40
2017-07-02T09:16:10.801Z,55.40
2017-07-02T09:18:39.311Z,55.00
2017-07-02T09:21:08.475Z,55.10
2017-07-02T09:23:36.709Z,55.10
2017-07-02T09:26:04.879Z,54.70
2017-07-02T09:28:33.111Z,53.70
2017-07-02T09:31:01.321Z,51.80
2017-07-02T09:33:29.507Z,52.00
2017-07-02T09:35:57.765Z,51.80
2017-07-02T09:38:27.163Z,50.80
2017-07-02T09:40:55.404Z,50.70
2017-07-02T09:43:23.587Z,50.90
2017-07-02T09:45:52.584Z,50.30
2017-07-02T09:48:20.829Z,50.00
2017-07-02T09:50:49.315Z,49.40
2017-07-02T09:53:17.692Z,50.00
2017-07-02T09:55:45.915Z,50.20
2017-07-02T09:58:14.160Z,51.10
2017-07-02T10:00:42.423Z,50.70
2017-07-02T10:03:10.802Z,50.70
2017-07-02T10:05:38.950Z,50.50
2017-07-02T10:08:07.298Z,52.20
2017-07-02T10:10:35.470Z,52.20
2017-07-02T10:13:03.684Z,52.60
2017-07-02T10:15:32.065Z,52.20
2017-07-02T10:18:00.374Z,52.00
2017-07-02T10:20:29.364Z,53.10
2017-07-02T10:22:58.328Z,53.80
2017-07-02T10:25:26.687Z,53.60
2017-07-02T10:27:54.950Z,53.40
2017-07-02T10:30:23.155Z,53.80
2017-07-02T10:32:51.430Z,53.40
2017-07-02T10:35:19.636Z,52.70
2017-07-02T10:37:48.734Z,53.00
2017-07-02T10:40:16.985Z,53.00
2017-07-02T10:42:45.241Z,53.20
2017-07-02T10:45:13.462Z,53.40
2017-07-02T10:47:41.684Z,53.40
2017-07-02T10:50:09.896Z,53.70
2017-07-02T10:52:38.913Z,53.40
2017-07-02T10:55:07.123Z,53.30
2017-07-02T10:57:35.456Z,52.50
2017-07-02T11:00:03.695Z,52.50
2017-07-02T11:02:31.875Z,53.40
2017-07-02T11:05:00.883Z,53.10
2017-07-02T11:07:29.866Z,51.50
2017-07-02T11:09:58.864Z,52.90
2017-07-02T11:12:27.867Z,53.60
2017-07-02T11:14:56.196Z,53.60
2017-07-02T11:17:24.444Z,53.30
2017-07-02T11:19:52.663Z,53.90
2017-07-02T11:22:20.936Z,54.20
2017-07-02T11:24:49.384Z,53.50
2017-07-02T11:27:18.435Z,53.20
2017-07-02T11:29:47.429Z,53.20
2017-07-02T11:32:16.399Z,54.10
2017-07-02T11:34:44.646Z,54.00
2017-07-02T11:37:12.847Z,53.50
2017-07-02T11:39:41.827Z,53.10
2017-07-02T11:42:10.031Z,52.90
2017-07-02T11:44:38.977Z,53.00
2017-07-02T11:47:07.383Z,52.30
2017-07-02T11:49:36.420Z,50.20
2017-07-02T11:52:04.632Z,50.10
2017-07-02T11:54:32.840Z,50.10
2017-07-02T11:57:01.212Z,48.60
2017-07-02T11:59:30.170Z,47.80
2017-07-02T12:01:58.772Z,47.80
2017-07-02T12:04:27.069Z,47.90
2017-07-02T12:06:55.289Z,46.90
2017-07-02T12:09:23.518Z,46.60
2017-07-02T12:11:51.745Z,46.00
2017-07-02T12:14:19.962Z,45.00
2017-07-02T12:16:48.936Z,45.00
2017-07-02T12:19:17.915Z,44.70
2017-07-02T12:21:46.451Z,44.70
2017-07-02T12:24:14.624Z,46.00
2017-07-02T12:26:42.872Z,46.10
2017-07-02T12:29:11.848Z,46.20
2017-07-02T12:31:40.810Z,45.80
2017-07-02T12:34:09.025Z,45.80
2017-07-02T12:36:37.969Z,45.60
2017-07-02T12:39:06.180Z,45.60
2017-07-02T12:41:35.127Z,46.00
2017-07-02T12:44:03.337Z,46.10
2017-07-02T12:46:31.487Z,45.30
2017-07-02T12:48:59.719Z,46.70
2017-07-02T12:51:28.106Z,47.30
2017-07-02T12:53:56.291Z,47.80
2017-07-02T12:56:24.530Z,47.20
2017-07-02T12:58:52.730Z,47.90
2017-07-02T13:01:20.961Z,47.10
2017-07-02T13:03:49.130Z,47.90
2017-07-02T13:06:18.148Z,48.00
2017-07-02T13:08:46.403Z,47.80
2017-07-02T13:11:15.384Z,47.40
2017-07-02T13:13:58.048Z,47.70
2017-07-02T13:16:27.103Z,48.20
2017-07-02T13:18:55.332Z,47.80
2017-07-02T13:21:23.613Z,48.70
2017-07-02T13:23:51.832Z,48.70
2017-07-02T13:26:20.809Z,49.80
2017-07-02T13:28:49.188Z,49.70
2017-07-02T13:31:17.552Z,50.20
2017-07-02T13:33:46.577Z,51.00
2017-07-02T13:36:15.609Z,50.80
2017-07-02T13:38:43.834Z,50.80
2017-07-02T13:41:12.811Z,51.50
2017-07-02T13:43:41.073Z,51.40
2017-07-02T13:46:09.276Z,50.80
2017-07-02T13:48:38.316Z,50.00
2017-07-02T13:51:06.726Z,50.10
2017-07-02T13:53:34.922Z,50.20
2017-07-02T13:56:03.139Z,50.10
2017-07-02T13:58:32.825Z,50.20
2017-07-02T14:01:01.296Z,50.80
2017-07-02T14:03:30.113Z,51.70
2017-07-02T14:05:58.524Z,51.90
2017-07-02T14:08:28.044Z,51.70
2017-07-02T14:10:57.231Z,52.10
2017-07-02T14:13:25.754Z,52.10
2017-07-02T14:15:54.445Z,51.70
2017-07-02T14:18:23.521Z,53.00
2017-07-02T14:20:51.756Z,53.00
2017-07-02T14:23:20.315Z,53.50
2017-07-02T14:25:48.781Z,54.00
2017-07-02T14:28:16.988Z,53.90
2017-07-02T14:30:45.209Z,55.40
2017-07-02T14:33:13.422Z,56.90
2017-07-02T14:35:41.635Z,58.50
2017-07-02T14:38:09.839Z,60.70
2017-07-02T14:40:38.417Z,61.00
2017-07-02T14:43:06.624Z,62.10
2017-07-02T14:45:34.796Z,60.90
2017-07-02T14:48:03.053Z,60.00
2017-07-02T14:50:32.649Z,59.90
2017-07-02T14:53:01.419Z,59.20
2017-07-02T15:01:30.545Z,58.40
2017-07-02T15:03:59.551Z,58.60
2017-07-02T15:06:27.773Z,58.60
2017-07-02T15:08:56.151Z,58.90
2017-07-02T15:11:24.500Z,59.00
2017-07-02T15:13:56.300Z,59.10
2017-07-02T15:16:25.841Z,59.50
2017-07-02T15:18:54.117Z,59.50
2017-07-02T15:21:22.377Z,59.40
2017-07-02T15:23:51.362Z,59.20
2017-07-02T15:26:20.310Z,59.60
2017-07-02T15:28:48.637Z,59.30
2017-07-02T15:31:17.755Z,59.60
2017-07-02T15:33:45.987Z,59.50
2017-07-02T15:36:14.460Z,60.40
2017-07-02T15:38:42.868Z,60.70
2017-07-02T15:41:11.143Z,60.20
2017-07-02T15:43:39.464Z,61.40
2017-07-02T15:46:07.765Z,61.90
2017-07-02T15:48:36.259Z,62.10
2017-07-02T15:51:05.206Z,62.60
2017-07-02T15:53:33.532Z,61.90
2017-07-02T15:56:02.757Z,62.00
2017-07-02T15:58:31.035Z,62.00
2017-07-02T16:00:59.222Z,62.00
2017-07-02T16:03:27.500Z,62.00
2017-07-02T16:05:55.923Z,62.50
2017-07-02T16:08:24.941Z,62.00
2017-07-02T16:10:54.264Z,62.00
2017-07-02T16:13:22.512Z,61.60
2017-07-02T16:15:50.754Z,61.60
2017-07-02T16:18:19.292Z,61.10
2017-07-02T16:20:47.744Z,61.00
2017-07-02T16:23:16.357Z,61.70
2017-07-02T16:25:44.660Z,61.60
2017-07-02T16:28:14.639Z,61.80
2017-07-02T16:30:43.007Z,61.90
2017-07-02T16:33:11.211Z,61.90
2017-07-02T16:35:39.410Z,62.70
2017-07-02T16:38:07.848Z,62.20
2017-07-02T16:40:38.396Z,62.30
2017-07-02T16:43:08.307Z,62.90
2017-07-02T16:45:36.616Z,63.70
2017-07-02T16:48:07.068Z,63.70
2017-07-02T16:50:37.682Z,63.20
2017-07-02T16:53:07.673Z,63.50
2017-07-02T16:55:38.301Z,63.40
2017-07-02T16:58:07.796Z,63.30
2017-07-02T17:00:36.900Z,63.70
2017-07-02T17:03:05.142Z,63.70
2017-07-02T17:05:33.350Z,63.80
2017-07-02T17:08:01.521Z,64.00
2017-07-02T17:10:29.833Z,64.00
2017-07-02T17:12:58.216Z,63.40
2017-07-02T17:15:26.665Z,63.70
2017-07-02T17:17:54.915Z,63.60
2017-07-02T17:20:23.314Z,63.60
2017-07-02T17:22:52.160Z,63.10
2017-07-02T17:25:20.502Z,62.90
2017-07-02T17:27:49.571Z,62.60
2017-07-02T17:30:17.755Z,62.60
2017-07-02T17:32:46.275Z,62.10
2017-07-02T17:35:14.465Z,61.90
2017-07-02T17:37:45.043Z,61.40
2017-07-02T17:40:13.415Z,61.10
2017-07-02T17:42:43.201Z,61.10
2017-07-02T17:45:13.078Z,60.90
2017-07-02T17:47:42.486Z,61.10
2017-07-02T17:50:11.528Z,61.60
2017-07-02T17:52:40.134Z,61.30
2017-07-02T17:55:11.364Z,62.20
2017-07-02T17:57:41.069Z,62.20
2017-07-02T18:00:11.923Z,61.80
2017-07-02T18:02:42.130Z,62.10
2017-07-02T18:05:10.713Z,62.00
2017-07-02T18:07:40.985Z,61.80
2017-07-02T18:10:11.734Z,61.80
2017-07-02T18:12:41.845Z,61.70
2017-07-02T18:15:11.544Z,62.20
2017-07-02T18:17:41.531Z,62.70
2017-07-02T18:20:09.838Z,62.70
2017-07-02T18:22:39.682Z,63.00
2017-07-02T18:25:08.039Z,63.40
2017-07-02T18:27:36.534Z,63.40
2017-07-02T18:30:04.738Z,63.80
2017-07-02T18:32:34.143Z,63.60
2017-07-02T18:35:04.642Z,63.60
2017-07-02T18:37:56.157Z,63.70
2017-07-02T18:40:25.266Z,63.70
2017-07-02T18:42:54.654Z,63.70
2017-07-02T18:45:23.351Z,63.60
2017-07-02T18:47:52.816Z,64.30
2017-07-02T18:50:21.103Z,64.30
2017-07-02T18:52:49.455Z,64.00
2017-07-02T18:55:18.057Z,64.50
2017-07-02T18:57:46.809Z,64.40
2017-07-02T19:00:15.045Z,64.70
2017-07-02T19:02:43.470Z,65.20
2017-07-02T19:05:11.811Z,65.00
2017-07-02T19:07:40.355Z,66.00
2017-07-02T19:10:09.878Z,66.00
2017-07-02T19:12:38.351Z,66.00
2017-07-02T19:15:06.879Z,66.30
2017-07-02T19:17:35.368Z,66.40
2017-07-02T19:20:03.590Z,67.20
2017-07-02T19:22:31.835Z,67.90
2017-07-02T19:25:00.032Z,67.80
2017-07-02T19:27:28.589Z,66.90
2017-07-02T19:29:56.817Z,67.40
2017-07-02T19:32:26.237Z,66.80
2017-07-02T19:34:54.519Z,66.80
2017-07-02T19:37:23.056Z,66.70
2017-07-02T19:39:51.615Z,66.70
2017-07-02T19:42:20.137Z,67.00
2017-07-02T19:44:48.427Z,67.60
2017-07-02T19:47:17.657Z,67.90
2017-07-02T19:49:45.967Z,67.90
2017-07-02T19:52:14.337Z,68.40
2017-07-02T19:54:42.876Z,68.00
2017-07-02T19:57:11.315Z,68.60
2017-07-02T19:59:40.360Z,69.10
2017-07-02T20:02:09.285Z,69.30
2017-07-02T20:10:26.376Z,69.10
2017-07-02T20:12:56.504Z,69.70
2017-07-02T20:15:46.416Z,70.50
2017-07-02T20:18:15.512Z,70.60
2017-07-02T20:20:43.837Z,71.40
2017-07-02T20:23:16.105Z,71.60
2017-07-02T20:25:47.256Z,71.70
2017-07-02T20:31:31.774Z,72.10
2017-07-02T20:34:00.785Z,72.40
2017-07-02T20:36:29.435Z,72.50
2017-07-02T20:38:58.484Z,72.50
2017-07-02T20:41:27.012Z,73.10
2017-07-02T20:43:55.483Z,73.00
2017-07-02T20:46:24.137Z,73.30
2017-07-02T20:49:01.029Z,74.30
2017-07-02T20:51:34.249Z,74.70
2017-07-02T20:54:02.811Z,74.70
2017-07-02T20:56:31.177Z,74.80
2017-07-02T20:59:00.306Z,75.10
2017-07-02T21:04:28.808Z,75.30
2017-07-02T21:06:57.746Z,75.60
2017-07-02T21:09:25.974Z,75.60
2017-07-02T21:11:54.912Z,75.90
2017-07-02T21:14:23.145Z,75.90
2017-07-02T21:16:51.363Z,76.20
2017-07-02T21:19:20.623Z,77.00
2017-07-02T21:21:48.879Z,77.00
2017-07-02T21:24:17.912Z,77.60
2017-07-02T21:26:46.169Z,77.60
2017-07-02T21:29:14.338Z,77.50
2017-07-02T21:31:42.568Z,77.70
2017-07-02T21:34:10.786Z,77.90
2017-07-02T21:36:38.979Z,77.80
2017-07-02T21:39:07.184Z,77.80
2017-07-02T21:41:35.413Z,77.30
2017-07-02T21:44:03.612Z,77.10
2017-07-02T21:46:32.035Z,77.00
2017-07-02T21:49:00.256Z,76.90
2017-07-02T21:51:28.491Z,76.80
2017-07-02T21:53:56.970Z,77.50
2017-07-02T21:56:25.991Z,78.00
2017-07-02T21:58:54.165Z,78.00
2017-07-02T22:01:22.350Z,78.30
2017-07-02T22:03:50.668Z,79.20
2017-07-02T22:06:19.096Z,79.80
2017-07-02T22:08:47.274Z,79.30
2017-07-02T22:11:15.871Z,79.20
2017-07-02T22:13:44.099Z,79.10
2017-07-02T22:16:12.287Z,79.70
2017-07-02T22:18:40.536Z,79.50
2017-07-02T22:21:08.727Z,79.40
2017-07-02T22:23:36.910Z,79.70
2017-07-02T22:26:05.210Z,78.70
2017-07-02T22:28:33.440Z,79.00
2017-07-02T22:31:02.385Z,79.60
2017-07-02T22:33:30.590Z,79.50
2017-07-02T22:35:58.770Z,79.30
2017-07-02T22:38:27.737Z,79.60
2017-07-02T22:40:55.944Z,79.60
2017-07-02T22:43:24.891Z,79.20
2017-07-02T22:45:53.106Z,79.10
2017-07-02T22:48:22.066Z,79.60
2017-07-02T22:50:50.220Z,79.50
2017-07-02T22:53:18.807Z,81.10
2017-07-02T22:55:47.149Z,79.90
2017-07-02T22:58:15.421Z,80.70
2017-07-02T23:00:43.612Z,81.20
2017-07-02T23:03:11.835Z,80.90
2017-07-02T23:05:40.788Z,82.80
2017-07-02T23:08:09.631Z,82.80
2017-07-02T23:10:38.734Z,82.00
2017-07-02T23:13:07.661Z,81.20
2017-07-02T23:15:35.848Z,81.20
2017-07-02T23:18:04.052Z,82.60
2017-07-02T23:20:32.238Z,83.80
2017-07-02T23:23:01.216Z,84.20
2017-07-02T23:25:29.396Z,84.20
2017-07-02T23:27:58.460Z,83.10
2017-07-02T23:30:26.683Z,83.70
2017-07-02T23:32:55.625Z,83.70
2017-07-02T23:35:23.827Z,83.60
2017-07-02T23:37:52.069Z,83.20
2017-07-02T23:40:20.221Z,83.40
2017-07-02T23:42:48.459Z,83.30
2017-07-02T23:45:17.535Z,83.40
2017-07-02T23:47:45.711Z,83.40
2017-07-02T23:50:14.682Z,83.70
2017-07-02T23:52:42.865Z,83.70
2017-07-02T23:55:11.028Z,83.50
2017-07-02T23:57:39.269Z,83.70
